Terminal Aerodrome Forecast
Issued by NWS

Home | Current Version | Previous Version | Text Only | Print | Product List | Glossary On
Versions: 1 2 3 4 5 6 7 8 9 10 11 12 13 14 15 16 17 18
000
FTAK31 PAJN 291140
TAFAJN
TAF
PAJN 291140Z 2912/3012 08007KT 6SM -SHRA BR SCT007 BKN030 OVC040
     FM291500 11010KT 6SM -SHRA BKN018 OVC030
     FM292100 11008KT P6SM -SHRA OVC025
     FM300300 08004KT P6SM -SHRA SCT025 BKN040 OVC060=

USA.gov is the U.S. government's official web portal to all federal, state and local government web resources and services.